Avo Varela — CUCZ2 — position and weather

sailwx.info

Track history (hours):
 
Tides and Currents Weather Stations Pressure Air Temp Water Temp Dewpoint Dewpoint Depression Visibility Wind Speed Wind Dir Waves Ship Positions

Avo Varela

Last reported at 2018-Jun-21 23:22 UTC. Time now 2018-Jun-21 23:46 UTC.
Position N 39°17' W 009°28'.

Type: Fishing. MMSI: 263422760.

Date/timePositionNaut miles runAvg speedWind from/ knotsBaromVisibWave heightAir tempDewpointWater temp
2018-Jun-21 23:22N 39°17' W 009°28'410.0
2018-Jun-21 23:00N 39°14' W 009°31'2 1.9
2018-Jun-21 22:03N 39°13' W 009°33'0 0.3
2018-Jun-21 21:58N 39°13' W 009°33'0 0.2
2018-Jun-21 21:21N 39°13' W 009°33'0 0.1
2018-Jun-21 21:00N 39°13' W 009°33'0 0.0
2018-Jun-21 20:30N 39°13' W 009°33'0 0.5
2018-Jun-21 20:00N 39°13' W 009°33'1 1.2
2018-Jun-21 19:30N 39°14' W 009°33'1 1.3
2018-Jun-21 19:00N 39°14' W 009°33'1 1.1
2018-Jun-21 18:31N 39°15' W 009°33'0 0.1
2018-Jun-21 18:01N 39°15' W 009°33'1 2.0
2018-Jun-21 17:31N 39°16' W 009°32'6 8.9
2018-Jun-21 16:50N 39°19' W 009°26'2 1.1
2018-Jun-21 15:03N 39°18' W 009°28'0 5.9
2018-Jun-21 15:00N 39°18' W 009°28'0 0.2
2018-Jun-21 14:30N 39°18' W 009°28'0 0.1
2018-Jun-21 14:00N 39°18' W 009°28'2 2.7
2018-Jun-21 13:25N 39°18' W 009°26'2 0.2
2018-Jun-20 22:42N 39°19' W 009°24'2 9.1
2018-Jun-20 22:29N 39°17' W 009°24'4 9.0
2018-Jun-20 22:00N 39°13' W 009°25'5 9.0
2018-Jun-20 21:30N 39°08' W 009°27'1 1.4
2018-Jun-20 21:00N 39°07' W 009°27'0 0.2
2018-Jun-20 20:30N 39°07' W 009°27'1 1.5
2018-Jun-20 20:00N 39°08' W 009°27'0 0.7
2018-Jun-20 19:30N 39°08' W 009°27'0 0.4
2018-Jun-20 19:00N 39°08' W 009°26'0 0.5
2018-Jun-20 18:30N 39°08' W 009°26'0 0.1
2018-Jun-20 18:00N 39°09' W 009°26'1 1.2
2018-Jun-20 17:30N 39°09' W 009°26'2 2.4
2018-Jun-20 16:34N 39°09' W 009°23'0 0.2
2018-Jun-20 16:15N 39°09' W 009°23'0 0.1
2018-Jun-20 16:00N 39°09' W 009°23'1 2.5
2018-Jun-20 15:29N 39°10' W 009°24'5 0.3
2018-Jun-19 22:26N 39°15' W 009°24'4 9.7
2018-Jun-19 22:00N 39°11' W 009°26'5 9.5
2018-Jun-19 21:30N 39°07' W 009°29'0 0.4
2018-Jun-19 21:00N 39°07' W 009°29'0 0.2
2018-Jun-19 20:30N 39°07' W 009°29'0 0.3
2018-Jun-19 20:00N 39°07' W 009°29'2 3.2
2018-Jun-19 19:30N 39°09' W 009°28'0 0.1
2018-Jun-19 19:00N 39°09' W 009°28'0 0.0
2018-Jun-19 18:30N 39°09' W 009°28'0 0.0
2018-Jun-19 18:00N 39°09' W 009°28'0 0.0
2018-Jun-19 17:30N 39°09' W 009°28'0 0.0
2018-Jun-19 17:00N 39°09' W 009°28'0 0.1
2018-Jun-19 16:30N 39°09' W 009°28'2 4.1
2018-Jun-19 15:56N 39°09' W 009°25'1 2.4
2018-Jun-19 15:30N 39°09' W 009°23'0 0.1
2018-Jun-19 14:59N 39°09' W 009°23'1 1.5
2018-Jun-19 14:24N 39°10' W 009°24'3 7.6
2018-Jun-19 14:00N 39°12' W 009°26'4 8.5
2018-Jun-19 13:28N 39°17' W 009°26'1 0.1
2018-Jun-18 15:49N 39°18' W 009°26'1 1.1
2018-Jun-18 15:13N 39°18' W 009°27'0 0.6
2018-Jun-18 14:59N 39°18' W 009°27'2 5.2
2018-Jun-18 14:31N 39°15' W 009°25'5 9.5
2018-Jun-18 14:01N 39°11' W 009°24'  
2018-Jun-15 22:10N 39°19' W 009°23'5 3.2
2018-Jun-15 20:43N 39°15' W 009°23'3 3.5
2018-Jun-15 19:48N 39°12' W 009°24'3 8.2
2018-Jun-15 19:29N 39°10' W 009°26'2 0.4
2018-Jun-15 14:39N 39°10' W 009°23'0 0.2
2018-Jun-15 14:23N 39°10' W 009°23'6 0.4
2018-Jun-14 22:33N 39°15' W 009°24'1 9.6
2018-Jun-14 22:29N 39°15' W 009°25'5 9.5
2018-Jun-14 21:59N 39°10' W 009°26'4 8.8
2018-Jun-14 21:30N 39°06' W 009°28'1 1.0
2018-Jun-14 21:00N 39°07' W 009°28'0 0.6
2018-Jun-14 20:30N 39°07' W 009°28'0 1.0
2018-Jun-14 20:00N 39°07' W 009°27'4 5.9
2018-Jun-14 19:22N 39°10' W 009°25'1 2.4
2018-Jun-14 19:00N 39°11' W 009°24'0 0.0
2018-Jun-14 18:30N 39°11' W 009°24'4 0.3
2018-Jun-14 01:03N 39°15' W 009°23'2 9.4
2018-Jun-14 00:48N 39°13' W 009°24'3 8.9
2018-Jun-14 00:30N 39°11' W 009°25'2 4.1
2018-Jun-14 00:01N 39°09' W 009°25'1 1.5
2018-Jun-13 23:29N 39°08' W 009°26'1 1.7
2018-Jun-13 23:00N 39°07' W 009°26'1 1.6
2018-Jun-13 22:31N 39°06' W 009°26'1 1.3
2018-Jun-13 22:01N 39°06' W 009°27'0 0.8
2018-Jun-13 21:30N 39°05' W 009°27'0 0.4
2018-Jun-13 20:59N 39°06' W 009°27'1 1.0
2018-Jun-13 20:30N 39°06' W 009°26'0 0.3
2018-Jun-13 20:00N 39°06' W 009°26'4 8.7
2018-Jun-13 19:30N 39°02' W 009°27'4 8.8
2018-Jun-13 19:00N 38°57' W 009°27'2 4.5
2018-Jun-13 18:30N 38°55' W 009°27'0 0.9
2018-Jun-13 18:00N 38°55' W 009°27'0 0.7
2018-Jun-13 17:31N 38°56' W 009°27'0 0.6
2018-Jun-13 17:01N 38°56' W 009°27'0 0.9
2018-Jun-13 16:31N 38°56' W 009°27'0 0.4
2018-Jun-13 16:01N 38°56' W 009°26'2 3.8
2018-Jun-13 15:31N 38°58' W 009°26'5 9.8
2018-Jun-13 15:00N 39°03' W 009°26'5 9.0
2018-Jun-13 14:29N 39°08' W 009°25'6 8.8
2018-Jun-13 13:49N 39°13' W 009°22'2 0.1
2018-Jun-12 19:05N 39°12' W 009°24'1 9.2
2018-Jun-12 19:00N 39°12' W 009°25'4 8.9
2018-Jun-12 18:30N 39°07' W 009°26'4 8.6
2018-Jun-12 18:00N 39°03' W 009°27'4 8.7
2018-Jun-12 17:30N 38°59' W 009°27'2 4.0
2018-Jun-12 16:59N 38°57' W 009°27'1 1.1
2018-Jun-12 16:29N 38°57' W 009°27'0 0.6
2018-Jun-12 16:00N 38°58' W 009°27'0 0.5
2018-Jun-12 15:30N 38°58' W 009°27'4 7.8
2018-Jun-12 15:00N 39°02' W 009°27'5 9.7
2018-Jun-12 14:30N 39°07' W 009°25'5 9.6
2018-Jun-12 13:57N 39°11' W 009°23'  
Track history (hours):
 
Tides and Currents Weather Stations Pressure Air Temp Water Temp Dewpoint Dewpoint Depression Visibility Wind Speed Wind Dir Waves Ship Positions

Avo Varela

Last reported at 2018-Jun-21 23:22 UTC. Time now 2018-Jun-21 23:46 UTC.
Position N 39°17' W 009°28'.

Type: Fishing. MMSI: 263422760.

Date/timePositionNaut miles runAvg speedWind from/ knotsBaromVisibWave heightAir tempDewpointWater temp
2018-Jun-21 23:22N 39°17' W 009°28'410.0
2018-Jun-21 23:00N 39°14' W 009°31'2 1.9
2018-Jun-21 22:03N 39°13' W 009°33'0 0.3
2018-Jun-21 21:58N 39°13' W 009°33'0 0.2
2018-Jun-21 21:21N 39°13' W 009°33'0 0.1
2018-Jun-21 21:00N 39°13' W 009°33'0 0.0
2018-Jun-21 20:30N 39°13' W 009°33'0 0.5
2018-Jun-21 20:00N 39°13' W 009°33'1 1.2
2018-Jun-21 19:30N 39°14' W 009°33'1 1.3
2018-Jun-21 19:00N 39°14' W 009°33'1 1.1
2018-Jun-21 18:31N 39°15' W 009°33'0 0.1
2018-Jun-21 18:01N 39°15' W 009°33'1 2.0
2018-Jun-21 17:31N 39°16' W 009°32'6 8.9
2018-Jun-21 16:50N 39°19' W 009°26'2 1.1
2018-Jun-21 15:03N 39°18' W 009°28'0 5.9
2018-Jun-21 15:00N 39°18' W 009°28'0 0.2
2018-Jun-21 14:30N 39°18' W 009°28'0 0.1
2018-Jun-21 14:00N 39°18' W 009°28'2 2.7
2018-Jun-21 13:25N 39°18' W 009°26'2 0.2
2018-Jun-20 22:42N 39°19' W 009°24'2 9.1
2018-Jun-20 22:29N 39°17' W 009°24'4 9.0
2018-Jun-20 22:00N 39°13' W 009°25'5 9.0
2018-Jun-20 21:30N 39°08' W 009°27'1 1.4
2018-Jun-20 21:00N 39°07' W 009°27'0 0.2
2018-Jun-20 20:30N 39°07' W 009°27'1 1.5
2018-Jun-20 20:00N 39°08' W 009°27'0 0.7
2018-Jun-20 19:30N 39°08' W 009°27'0 0.4
2018-Jun-20 19:00N 39°08' W 009°26'0 0.5
2018-Jun-20 18:30N 39°08' W 009°26'0 0.1
2018-Jun-20 18:00N 39°09' W 009°26'1 1.2
2018-Jun-20 17:30N 39°09' W 009°26'2 2.4
2018-Jun-20 16:34N 39°09' W 009°23'0 0.2
2018-Jun-20 16:15N 39°09' W 009°23'0 0.1
2018-Jun-20 16:00N 39°09' W 009°23'1 2.5
2018-Jun-20 15:29N 39°10' W 009°24'5 0.3
2018-Jun-19 22:26N 39°15' W 009°24'4 9.7
2018-Jun-19 22:00N 39°11' W 009°26'5 9.5
2018-Jun-19 21:30N 39°07' W 009°29'0 0.4
2018-Jun-19 21:00N 39°07' W 009°29'0 0.2
2018-Jun-19 20:30N 39°07' W 009°29'0 0.3
2018-Jun-19 20:00N 39°07' W 009°29'2 3.2
2018-Jun-19 19:30N 39°09' W 009°28'0 0.1
2018-Jun-19 19:00N 39°09' W 009°28'0 0.0
2018-Jun-19 18:30N 39°09' W 009°28'0 0.0
2018-Jun-19 18:00N 39°09' W 009°28'0 0.0
2018-Jun-19 17:30N 39°09' W 009°28'0 0.0
2018-Jun-19 17:00N 39°09' W 009°28'0 0.1
2018-Jun-19 16:30N 39°09' W 009°28'2 4.1
2018-Jun-19 15:56N 39°09' W 009°25'1 2.4
2018-Jun-19 15:30N 39°09' W 009°23'0 0.1
2018-Jun-19 14:59N 39°09' W 009°23'1 1.5
2018-Jun-19 14:24N 39°10' W 009°24'3 7.6
2018-Jun-19 14:00N 39°12' W 009°26'4 8.5
2018-Jun-19 13:28N 39°17' W 009°26'1 0.1
2018-Jun-18 15:49N 39°18' W 009°26'1 1.1
2018-Jun-18 15:13N 39°18' W 009°27'0 0.6
2018-Jun-18 14:59N 39°18' W 009°27'2 5.2
2018-Jun-18 14:31N 39°15' W 009°25'5 9.5
2018-Jun-18 14:01N 39°11' W 009°24'  
2018-Jun-15 22:10N 39°19' W 009°23'5 3.2
2018-Jun-15 20:43N 39°15' W 009°23'3 3.5
2018-Jun-15 19:48N 39°12' W 009°24'3 8.2
2018-Jun-15 19:29N 39°10' W 009°26'2 0.4
2018-Jun-15 14:39N 39°10' W 009°23'0 0.2
2018-Jun-15 14:23N 39°10' W 009°23'6 0.4
2018-Jun-14 22:33N 39°15' W 009°24'1 9.6
2018-Jun-14 22:29N 39°15' W 009°25'5 9.5
2018-Jun-14 21:59N 39°10' W 009°26'4 8.8
2018-Jun-14 21:30N 39°06' W 009°28'1 1.0
2018-Jun-14 21:00N 39°07' W 009°28'0 0.6
2018-Jun-14 20:30N 39°07' W 009°28'0 1.0
2018-Jun-14 20:00N 39°07' W 009°27'4 5.9
2018-Jun-14 19:22N 39°10' W 009°25'1 2.4
2018-Jun-14 19:00N 39°11' W 009°24'0 0.0
2018-Jun-14 18:30N 39°11' W 009°24'4 0.3
2018-Jun-14 01:03N 39°15' W 009°23'2 9.4
2018-Jun-14 00:48N 39°13' W 009°24'3 8.9
2018-Jun-14 00:30N 39°11' W 009°25'2 4.1
2018-Jun-14 00:01N 39°09' W 009°25'1 1.5
2018-Jun-13 23:29N 39°08' W 009°26'1 1.7
2018-Jun-13 23:00N 39°07' W 009°26'1 1.6
2018-Jun-13 22:31N 39°06' W 009°26'1 1.3
2018-Jun-13 22:01N 39°06' W 009°27'0 0.8
2018-Jun-13 21:30N 39°05' W 009°27'0 0.4
2018-Jun-13 20:59N 39°06' W 009°27'1 1.0
2018-Jun-13 20:30N 39°06' W 009°26'0 0.3
2018-Jun-13 20:00N 39°06' W 009°26'4 8.7
2018-Jun-13 19:30N 39°02' W 009°27'4 8.8
2018-Jun-13 19:00N 38°57' W 009°27'2 4.5
2018-Jun-13 18:30N 38°55' W 009°27'0 0.9
2018-Jun-13 18:00N 38°55' W 009°27'0 0.7
2018-Jun-13 17:31N 38°56' W 009°27'0 0.6
2018-Jun-13 17:01N 38°56' W 009°27'0 0.9
2018-Jun-13 16:31N 38°56' W 009°27'0 0.4
2018-Jun-13 16:01N 38°56' W 009°26'2 3.8
2018-Jun-13 15:31N 38°58' W 009°26'5 9.8
2018-Jun-13 15:00N 39°03' W 009°26'5 9.0
2018-Jun-13 14:29N 39°08' W 009°25'6 8.8
2018-Jun-13 13:49N 39°13' W 009°22'2 0.1
2018-Jun-12 19:05N 39°12' W 009°24'1 9.2
2018-Jun-12 19:00N 39°12' W 009°25'4 8.9
2018-Jun-12 18:30N 39°07' W 009°26'4 8.6
2018-Jun-12 18:00N 39°03' W 009°27'4 8.7
2018-Jun-12 17:30N 38°59' W 009°27'2 4.0
2018-Jun-12 16:59N 38°57' W 009°27'1 1.1
2018-Jun-12 16:29N 38°57' W 009°27'0 0.6
2018-Jun-12 16:00N 38°58' W 009°27'0 0.5
2018-Jun-12 15:30N 38°58' W 009°27'4 7.8
2018-Jun-12 15:00N 39°02' W 009°27'5 9.7
2018-Jun-12 14:30N 39°07' W 009°25'5 9.6
2018-Jun-12 13:57N 39°11' W 009°23'  

Dump ship's entire track history